Time;durP1;ratioP1;P1;durP2;ratioP2;P2;SDS_P1;SDS_P2;PMS_P1;PMS_P2;Temp;Humidity;BMP_temperature;BMP_pressure;BME280_temperature;BME280_humidity;BME280_pressure;Samples;Min_cycle;Max_cycle;Signal;HPM_P1;HPM_P2
2022/06/29 00:02:00;;;;;;;5.30;4.18;;;;;;;16.14;68.89;101521.75;6307538;22;20488;-89
2022/06/29 00:04:26;;;;;;;6.68;4.20;;;;;;;16.41;70.56;101594.41;6308430;22;20007;-89
2022/06/29 00:06:51;;;;;;;6.80;4.30;;;;;;;16.38;68.99;101599.88;6308358;22;20455;-88
2022/06/29 00:09:16;;;;;;;6.88;4.15;;;;;;;16.32;69.36;101603.75;6308349;22;20029;-88
2022/06/29 00:11:41;;;;;;;6.70;4.18;;;;;;;15.81;70.37;101531.13;6308082;22;20007;-88
2022/06/29 00:14:07;;;;;;;8.52;4.30;;;;;;;16.09;71.95;101602.88;6308779;22;20435;-89
2022/06/29 00:16:32;;;;;;;8.07;5.13;;;;;;;16.09;71.24;101599.44;6308496;22;20003;-87
2022/06/29 00:18:57;;;;;;;8.02;5.18;;;;;;;16.04;70.99;101591.97;6308282;22;20004;-88
2022/06/29 00:21:23;;;;;;;8.23;5.20;;;;;;;15.84;72.41;101576.97;6308369;22;20042;-88
2022/06/29 00:23:48;;;;;;;8.02;5.00;;;;;;;15.68;72.62;101559.84;6308327;22;20010;-87
2022/06/29 00:26:13;;;;;;;7.40;4.75;;;;;;;15.58;73.84;101558.00;6308500;22;20068;-88
2022/06/29 00:28:39;;;;;;;6.75;5.10;;;;;;;15.77;72.58;101585.22;6308013;22;20420;-80
2022/06/29 00:31:04;;;;;;;7.57;5.13;;;;;;;15.74;73.65;101589.84;6308363;22;20033;-86
2022/06/29 00:33:29;;;;;;;8.23;5.65;;;;;;;15.69;73.80;101584.94;6308083;22;20007;-83
2022/06/29 00:35:55;;;;;;;8.10;5.75;;;;;;;15.62;73.79;101588.91;6308245;22;20010;-87
2022/06/29 00:38:20;;;;;;;7.97;5.80;;;;;;;15.48;75.29;101587.28;6308316;22;20413;-87
2022/06/29 00:40:45;;;;;;;9.13;6.28;;;;;;;15.52;75.06;101585.28;6307833;22;20038;-87
2022/06/29 00:43:11;;;;;;;5.85;5.25;;;;;;;15.41;75.86;101586.06;6307957;22;20436;-88
2022/06/29 00:45:36;;;;;;;8.07;5.95;;;;;;;15.45;74.09;101571.06;6307970;22;19999;-88
2022/06/29 00:48:02;;;;;;;7.32;6.13;;;;;;;15.47;75.20;101577.00;6308110;22;20009;-89
2022/06/29 00:50:30;;;;;;;9.70;6.75;;;;;;;15.44;74.16;101577.22;6307688;22;20416;-86
2022/06/29 00:53:02;;;;;;;7.28;6.25;;;;;;;15.16;74.45;101547.94;6308597;22;20003;-88
2022/06/29 00:55:30;;;;;;;7.30;6.40;;;;;;;15.27;75.83;101574.97;6307776;22;20006;-88
2022/06/29 00:58:05;;;;;;;9.23;7.05;;;;;;;15.23;75.38;101565.72;6307702;22;20006;-86
2022/06/29 01:00:34;;;;;;;9.52;7.00;;;;;;;15.11;74.62;101538.78;6307829;22;20010;-87
2022/06/29 01:03:00;;;;;;;9.43;6.85;;;;;;;15.13;74.57;101535.13;6307638;22;20547;-85
2022/06/29 01:05:27;;;;;;;9.70;6.78;;;;;;;15.31;74.51;101568.59;6307897;22;20007;-87
2022/06/29 01:07:52;;;;;;;8.90;6.90;;;;;;;14.97;74.86;101507.75;6307272;22;20010;-87
2022/06/29 01:10:19;;;;;;;13.25;7.53;;;;;;;14.95;75.85;101502.66;6307364;22;20007;-88
2022/06/29 01:12:47;;;;;;;8.73;7.53;;;;;;;15.02;74.84;101516.84;6307436;22;20014;-89
2022/06/29 01:15:13;;;;;;;8.50;7.10;;;;;;;15.19;74.78;101560.72;6307675;22;19999;-87
2022/06/29 01:17:38;;;;;;;10.02;8.05;;;;;;;14.60;75.02;101464.34;6307616;22;20006;-88
2022/06/29 01:20:04;;;;;;;9.55;7.60;;;;;;;14.86;76.44;101521.50;6307490;22;20046;-87
2022/06/29 01:22:29;;;;;;;9.63;7.90;;;;;;;14.30;76.42;101427.44;6307602;22;20191;-86
2022/06/29 01:24:55;;;;;;;11.50;8.48;;;;;;;15.06;76.15;101564.31;6307925;22;19995;-88
2022/06/29 01:27:22;;;;;;;9.85;7.15;;;;;;;14.71;76.79;101519.94;6307487;22;20083;-89
2022/06/29 01:29:48;;;;;;;11.98;7.97;;;;;;;14.85;78.05;101564.03;6307677;22;20004;-86
2022/06/29 01:32:14;;;;;;;9.25;7.78;;;;;;;14.55;76.81;101510.63;6307736;22;20079;-86
2022/06/29 01:34:39;;;;;;;9.45;7.63;;;;;;;14.88;77.64;101558.63;6307796;22;19999;-84
2022/06/29 01:37:06;;;;;;;10.70;8.25;;;;;;;14.79;78.39;101561.84;6307823;22;20041;-86
2022/06/29 01:39:31;;;;;;;9.95;7.63;;;;;;;14.54;79.31;101523.69;6307376;22;20077;-88
2022/06/29 01:41:57;;;;;;;12.40;8.98;;;;;;;14.59;79.74;101550.22;6307805;22;20008;-88
2022/06/29 01:44:23;;;;;;;11.15;8.77;;;;;;;14.50;80.22;101548.25;6307837;22;20049;-87
2022/06/29 01:46:49;;;;;;;9.05;8.15;;;;;;;14.27;80.78;101518.59;6307639;22;19999;-87
2022/06/29 01:49:14;;;;;;;9.63;8.63;;;;;;;14.21;79.88;101500.81;6307557;22;20014;-86
2022/06/29 01:51:40;;;;;;;9.90;8.90;;;;;;;14.48;79.55;101550.13;6307625;22;20003;-88
2022/06/29 01:54:05;;;;;;;12.48;8.98;;;;;;;14.38;81.79;101549.88;6307576;22;20007;-87
2022/06/29 01:56:31;;;;;;;10.73;9.02;;;;;;;14.30;81.86;101546.97;6307332;22;20062;-87
2022/06/29 01:58:56;;;;;;;10.20;9.07;;;;;;;14.23;81.84;101548.31;6306968;22;20007;-88
2022/06/29 02:01:22;;;;;;;11.05;8.60;;;;;;;13.92;82.71;101502.75;6307015;22;20030;-88
2022/06/29 02:03:47;;;;;;;9.55;8.45;;;;;;;14.21;82.32;101542.38;6306903;22;20003;-87
2022/06/29 02:06:13;;;;;;;9.88;8.88;;;;;;;14.11;83.66;101536.13;6307300;22;19999;-87
2022/06/29 02:08:38;;;;;;;12.15;9.90;;;;;;;13.83;83.52;101498.16;6307417;22;20000;-86
2022/06/29 02:11:04;;;;;;;11.13;10.00;;;;;;;13.71;83.37;101479.88;6307186;22;20007;-89
2022/06/29 02:13:29;;;;;;;11.63;9.60;;;;;;;13.73;84.37;101496.19;6307524;22;20454;-89
2022/06/29 02:15:55;;;;;;;10.73;9.60;;;;;;;13.81;84.33;101513.03;6307364;22;20094;-87
2022/06/29 02:18:20;;;;;;;10.75;9.65;;;;;;;13.88;84.54;101535.91;6307140;22;20011;-87
2022/06/29 02:20:46;;;;;;;11.05;9.95;;;;;;;13.84;84.89;101541.38;6306944;22;20056;-88
2022/06/29 02:23:11;;;;;;;10.52;9.40;;;;;;;13.81;85.32;101545.00;6307344;22;20003;-85
2022/06/29 02:25:37;;;;;;;12.23;9.85;;;;;;;13.68;85.46;101521.63;6307399;22;20003;-88
2022/06/29 02:28:03;;;;;;;14.25;10.00;;;;;;;13.85;86.27;101546.47;6307322;22;20076;-82
2022/06/29 02:35:56;;;;;;;9.98;9.02;;;;;;;14.04;85.04;101530.50;6307024;22;20014;-88
2022/06/29 02:38:22;;;;;;;10.88;9.77;;;;;;;14.12;85.17;101535.19;6306758;22;19998;-87
2022/06/29 02:40:48;;;;;;;12.23;9.73;;;;;;;14.14;84.84;101535.91;6306692;22;20033;-88
2022/06/29 02:43:13;;;;;;;11.02;9.77;;;;;;;14.21;84.89;101529.38;6306783;22;20003;-87
2022/06/29 02:45:38;;;;;;;13.93;10.10;;;;;;;14.06;85.12;101505.28;6306992;22;20073;-83
2022/06/29 02:48:04;;;;;;;11.02;9.80;;;;;;;14.00;83.88;101487.50;6306991;22;20010;-83
2022/06/29 02:50:29;;;;;;;13.18;9.95;;;;;;;13.97;84.83;101488.56;6307098;22;20033;-87
2022/06/29 02:52:55;;;;;;;10.88;9.75;;;;;;;14.01;85.18;101497.78;6307094;22;20336;-83
2022/06/29 02:55:20;;;;;;;11.27;10.18;;;;;;;13.96;85.66;101502.47;6305768;22;20421;-81
2022/06/29 02:57:45;;;;;;;11.50;10.35;;;;;;;14.11;85.88;101528.34;6279190;22;20007;-81
2022/06/29 03:00:13;;;;;;;11.65;10.10;;;;;;;14.07;85.99;101523.38;6306893;22;20014;-87
2022/06/29 03:02:38;;;;;;;11.40;10.07;;;;;;;14.03;86.08;101518.47;6306361;22;20010;-86
2022/06/29 03:05:04;;;;;;;12.25;10.65;;;;;;;14.00;86.11;101521.28;6306958;22;20335;-87
2022/06/29 03:07:30;;;;;;;11.98;10.70;;;;;;;13.96;86.46;101517.19;6307052;22;20405;-87
2022/06/29 03:09:55;;;;;;;12.07;10.88;;;;;;;13.89;86.48;101497.78;6306939;22;20015;-87
2022/06/29 03:12:20;;;;;;;12.02;10.93;;;;;;;13.90;86.68;101499.44;6306350;22;20019;-87
2022/06/29 03:14:45;;;;;;;11.65;10.48;;;;;;;13.74;86.90;101479.66;6278704;22;20301;-87
2022/06/29 03:17:11;;;;;;;12.60;11.30;;;;;;;13.87;86.47;101510.03;6279561;22;20444;-88
2022/06/29 03:19:36;;;;;;;12.20;10.65;;;;;;;13.71;86.66;101482.47;6306722;22;20031;-89
2022/06/29 03:22:02;;;;;;;12.38;11.13;;;;;;;13.59;86.82;101467.72;6307062;22;20009;-86
2022/06/29 03:24:27;;;;;;;13.02;10.57;;;;;;;13.79;86.75;101507.94;6306348;22;19999;-86
2022/06/29 03:26:53;;;;;;;14.30;11.32;;;;;;;13.67;87.07;101478.44;6306570;22;20004;-85
2022/06/29 03:29:18;;;;;;;12.07;10.77;;;;;;;13.80;87.26;101501.81;6306722;22;20121;-88
2022/06/29 03:31:43;;;;;;;12.40;11.07;;;;;;;13.80;86.94;101493.19;6306562;22;20003;-87
2022/06/29 03:34:09;;;;;;;12.30;11.07;;;;;;;13.78;86.54;101488.94;6307012;22;20000;-85
2022/06/29 03:36:34;;;;;;;12.30;10.52;;;;;;;13.87;87.01;101492.69;6307539;22;20003;-81
2022/06/29 03:39:00;;;;;;;11.73;10.07;;;;;;;13.86;86.78;101484.97;6308834;22;20408;-86
2022/06/29 03:41:25;;;;;;;11.48;10.38;;;;;;;13.85;86.54;101481.56;6308869;22;19999;-86
2022/06/29 03:43:50;;;;;;;11.77;10.65;;;;;;;13.86;86.97;101477.19;6308842;22;20068;-87
2022/06/29 03:46:16;;;;;;;11.30;10.18;;;;;;;13.85;87.01;101467.75;6308868;22;20014;-85
2022/06/29 03:48:41;;;;;;;11.57;10.35;;;;;;;13.48;86.60;101408.75;6281222;22;20433;-84
2022/06/29 03:51:06;;;;;;;11.90;10.80;;;;;;;13.79;87.12;101466.41;6281254;22;20010;-81
2022/06/29 03:53:32;;;;;;;12.45;10.75;;;;;;;13.63;87.14;101438.03;6308670;22;20003;-82
2022/06/29 03:55:57;;;;;;;11.80;10.48;;;;;;;13.87;86.18;101477.13;6308807;22;20361;-88
2022/06/29 03:58:23;;;;;;;11.63;10.43;;;;;;;13.60;86.40;101440.81;6308788;22;20010;-83
2022/06/29 04:00:48;;;;;;;12.45;11.20;;;;;;;13.75;86.92;101470.13;6308449;22;20306;-87
2022/06/29 04:03:13;;;;;;;11.65;10.45;;;;;;;13.53;86.91;101415.38;6308775;22;20432;-88
2022/06/29 04:05:39;;;;;;;12.07;10.77;;;;;;;13.65;87.27;101428.38;6308342;22;20022;-86
2022/06/29 04:08:04;;;;;;;13.18;10.52;;;;;;;13.92;85.94;101463.81;6308189;22;20029;-81
2022/06/29 04:10:30;;;;;;;13.25;10.80;;;;;;;13.89;86.88;101453.66;6308318;22;20417;-83
2022/06/29 04:12:55;;;;;;;11.60;10.50;;;;;;;13.72;86.87;101416.66;6308214;22;20382;-87
2022/06/29 04:15:20;;;;;;;11.55;10.45;;;;;;;13.81;86.65;101429.94;6308529;22;20003;-87
2022/06/29 04:17:46;;;;;;;11.77;10.57;;;;;;;14.10;86.81;101466.94;6307886;22;20078;-89
2022/06/29 04:21:05;;;;;;;12.55;11.25;;;;;;;13.82;86.62;101419.47;6307794;22;20344;-82
2022/06/29 04:23:03;;;;;;;12.10;10.90;;;;;;;14.32;85.22;101465.38;6308019;22;20439;-88
2022/06/29 04:25:29;;;;;;;11.43;10.20;;;;;;;14.50;84.30;101452.91;6308194;22;20434;-85
2022/06/29 04:27:55;;;;;;;11.75;10.20;;;;;;;15.02;82.55;101432.78;6308277;22;20211;-88
2022/06/29 04:30:20;;;;;;;11.60;9.70;;;;;;;16.39;78.12;101463.38;6308440;22;20004;-89
2022/06/29 04:32:46;;;;;;;10.82;9.13;;;;;;;17.54;73.59;101458.50;6308414;22;20412;-88
2022/06/29 04:35:11;;;;;;;8.63;7.72;;;;;;;18.43;69.49;101435.34;6307952;22;20475;-86
2022/06/29 04:37:37;;;;;;;9.35;7.45;;;;;;;19.57;64.50;101419.13;6308320;22;20003;-88
2022/06/29 04:40:03;;;;;;;8.38;7.35;;;;;;;20.59;60.06;101441.84;6307015;22;20090;-82
2022/06/29 04:42:29;;;;;;;9.98;7.65;;;;;;;21.09;57.52;101401.16;6308215;22;20033;-81
2022/06/29 04:44:54;;;;;;;10.15;6.93;;;;;;;21.90;55.29;101445.63;6308360;22;20428;-87
2022/06/29 04:47:19;;;;;;;8.18;6.30;;;;;;;21.59;56.32;101426.84;6308099;22;20374;-81
2022/06/29 04:49:45;;;;;;;8.88;6.80;;;;;;;21.23;56.81;101445.25;6307994;22;20369;-83
2022/06/29 04:52:10;;;;;;;12.15;7.55;;;;;;;20.17;57.46;101385.56;6307994;22;20021;-89
2022/06/29 04:54:35;;;;;;;10.32;7.82;;;;;;;19.84;58.81;101397.41;6308056;22;20078;-86
2022/06/29 04:57:01;;;;;;;9.82;7.35;;;;;;;19.85;58.95;101427.88;6308066;22;20165;-88
2022/06/29 04:59:26;;;;;;;8.63;7.57;;;;;;;19.95;61.81;101454.91;6280410;22;20078;-80
2022/06/29 05:01:52;;;;;;;8.05;7.15;;;;;;;20.88;56.62;101407.53;6308131;22;20046;-88
2022/06/29 05:04:17;;;;;;;10.25;8.35;;;;;;;22.05;54.59;101452.78;6308069;22;20053;-83
2022/06/29 05:06:43;;;;;;;10.45;7.30;;;;;;;23.00;53.28;101385.00;6308166;22;20068;-82
2022/06/29 05:09:08;;;;;;;8.52;6.78;;;;;;;24.21;49.17;101377.88;6308271;22;20003;-85
2022/06/29 05:11:33;;;;;;;7.25;5.60;;;;;;;25.72;45.71;101433.63;6307475;22;20018;-86
2022/06/29 05:13:59;;;;;;;6.68;5.75;;;;;;;26.85;42.29;101441.19;6307923;22;20009;-89
2022/06/29 05:16:25;;;;;;;10.00;5.93;;;;;;;27.44;40.37;101436.44;6279664;22;20011;-82
2022/06/29 05:18:50;;;;;;;7.45;5.70;;;;;;;27.78;41.69;101431.38;6307561;22;20052;-81
2022/06/29 05:21:18;;;;;;;8.70;4.65;;;;;;;28.03;40.01;101411.31;6279735;22;20017;-85
2022/06/29 05:23:44;;;;;;;7.85;5.57;;;;;;;28.26;39.57;101395.88;6308191;22;20023;-81
2022/06/29 05:26:09;;;;;;;9.15;4.82;;;;;;;28.68;38.58;101427.69;6307719;22;20070;-82
2022/06/29 05:28:35;;;;;;;7.82;5.45;;;;;;;28.88;38.17;101419.75;6307737;22;19999;-82
2022/06/29 05:31:00;;;;;;;8.07;5.70;;;;;;;29.06;36.68;101418.16;6307653;22;20481;-82
2022/06/29 05:33:25;;;;;;;6.63;4.90;;;;;;;29.40;36.77;101417.16;6280043;22;20038;-82
2022/06/29 05:35:51;;;;;;;7.78;5.10;;;;;;;29.03;35.69;101311.41;6307533;22;19999;-82
2022/06/29 05:38:16;;;;;;;10.35;4.95;;;;;;;29.79;36.24;101393.31;6280346;22;20021;-82
2022/06/29 05:40:43;;;;;;;10.43;4.65;;;;;;;30.07;36.21;101395.72;6307851;22;20007;-82
2022/06/29 05:43:08;;;;;;;10.07;5.38;;;;;;;30.32;35.32;101420.63;6307437;22;20003;-81
2022/06/29 05:45:34;;;;;;;9.50;5.25;;;;;;;30.74;34.50;101415.69;6307437;22;20014;-82
2022/06/29 05:47:59;;;;;;;8.48;4.80;;;;;;;31.04;34.22;101406.00;6307348;22;20003;-82
2022/06/29 05:50:24;;;;;;;10.10;5.03;;;;;;;31.03;33.67;101411.56;6307399;22;20082;-82
2022/06/29 05:52:51;;;;;;;8.77;5.32;;;;;;;31.13;33.03;101383.38;6307459;22;20123;-82
2022/06/29 05:55:16;;;;;;;10.13;5.30;;;;;;;31.61;32.83;101409.41;6307496;22;20078;-82
2022/06/29 05:57:41;;;;;;;8.98;4.90;;;;;;;31.67;32.96;101405.88;6307482;22;20031;-82
2022/06/29 06:00:07;;;;;;;6.93;4.85;;;;;;;31.96;31.65;101417.69;6306631;22;20424;-79
2022/06/29 06:02:33;;;;;;;8.02;5.85;;;;;;;32.08;31.37;101420.41;6305820;22;20006;-77
2022/06/29 06:05:00;;;;;;;8.98;5.82;;;;;;;32.17;31.53;101416.41;6307935;22;20003;-78
2022/06/29 06:07:26;;;;;;;7.53;5.50;;;;;;;32.32;32.21;101413.34;6279446;22;20011;-77
2022/06/29 06:09:52;;;;;;;11.30;6.00;;;;;;;32.42;31.54;101410.94;6307352;22;20012;-77
2022/06/29 06:12:17;;;;;;;8.20;6.18;;;;;;;32.56;30.95;101398.22;6306989;22;20011;-82
2022/06/29 06:14:43;;;;;;;12.75;5.78;;;;;;;32.99;30.46;101414.03;6279752;22;20416;-79
2022/06/29 06:17:09;;;;;;;8.95;6.40;;;;;;;32.90;30.43;101385.16;6306957;22;20003;-78
2022/06/29 06:19:34;;;;;;;8.82;5.97;;;;;;;33.09;28.17;101397.38;6307042;22;20523;-81
2022/06/29 06:21:59;;;;;;;9.73;6.15;;;;;;;33.40;29.54;101411.50;6306987;22;20417;-77
2022/06/29 06:24:25;;;;;;;8.48;5.47;;;;;;;33.60;29.81;101409.25;6307104;22;20082;-77
2022/06/29 06:26:50;;;;;;;9.60;6.30;;;;;;;33.42;29.65;101412.88;6307104;22;19999;-79
2022/06/29 06:29:15;;;;;;;8.50;6.32;;;;;;;33.54;29.59;101411.03;6307322;22;20026;-79
2022/06/29 06:31:41;;;;;;;10.18;6.05;;;;;;;33.74;29.25;101407.16;6307138;22;20003;-81
2022/06/29 06:34:06;;;;;;;10.23;6.25;;;;;;;33.70;29.26;101376.53;6307263;22;20332;-78
2022/06/29 06:36:31;;;;;;;8.10;6.15;;;;;;;33.96;28.24;101400.13;6306722;22;20056;-80
2022/06/29 06:38:57;;;;;;;9.15;6.78;;;;;;;34.18;28.22;101408.31;6306741;22;20094;-80
2022/06/29 06:41:22;;;;;;;9.80;6.85;;;;;;;34.04;28.43;101409.69;6306754;22;20007;-80
2022/06/29 06:43:59;;;;;;;8.02;6.38;;;;;;;34.40;29.34;101405.81;6279394;22;20090;-79
2022/06/29 06:46:25;;;;;;;10.15;6.60;;;;;;;34.39;28.10;101409.53;6306709;22;20011;-79
2022/06/29 06:48:52;;;;;;;11.20;7.85;;;;;;;34.77;27.29;101408.88;6306806;22;20011;-80
2022/06/29 06:51:21;;;;;;;12.30;7.80;;;;;;;34.77;27.50;101411.53;6306648;22;20455;-79
2022/06/29 06:53:47;;;;;;;10.98;7.85;;;;;;;34.75;27.03;101408.31;6306892;22;20014;-80
2022/06/29 06:56:13;;;;;;;9.20;7.97;;;;;;;34.68;28.31;101410.31;6307152;22;20003;-79
2022/06/29 06:58:39;;;;;;;8.85;7.68;;;;;;;34.96;27.68;101412.16;6279066;22;20007;-80
2022/06/29 07:01:06;;;;;;;10.77;7.72;;;;;;;35.14;27.67;101403.03;6306547;22;20107;-78
2022/06/29 07:03:32;;;;;;;10.77;9.20;;;;;;;35.33;27.59;101402.50;6306657;22;20053;-79
2022/06/29 07:05:59;;;;;;;11.60;7.75;;;;;;;35.27;27.14;101381.19;6306518;22;20060;-80
2022/06/29 07:08:25;;;;;;;10.20;8.80;;;;;;;35.50;26.85;101410.56;6306788;22;20013;-79
2022/06/29 07:10:50;;;;;;;10.88;8.52;;;;;;;35.16;26.94;101390.16;6277909;22;20333;-85
2022/06/29 07:13:15;;;;;;;11.73;9.38;;;;;;;34.96;27.20;101393.38;6306713;22;19999;-82
2022/06/29 07:15:41;;;;;;;12.75;8.77;;;;;;;35.21;26.89;101382.22;6306596;22;20011;-77
2022/06/29 07:18:06;;;;;;;12.55;9.23;;;;;;;34.51;27.54;101412.97;6278437;22;20471;-85
2022/06/29 07:20:31;;;;;;;10.43;8.70;;;;;;;32.49;30.14;101373.44;6306481;22;20042;-78
2022/06/29 07:22:57;;;;;;;14.50;9.80;;;;;;;31.61;32.86;101409.41;6306107;22;20019;-79
2022/06/29 07:25:22;;;;;;;11.40;9.05;;;;;;;30.46;34.30;101376.03;6306488;22;20006;-80
2022/06/29 07:27:47;;;;;;;13.52;8.85;;;;;;;29.33;36.72;101389.72;6306647;22;20004;-78
2022/06/29 07:30:13;;;;;;;14.55;9.90;;;;;;;28.51;37.55;101413.94;6277996;22;20487;-80
2022/06/29 07:32:38;;;;;;;12.80;9.02;;;;;;;27.77;39.35;101381.97;6307075;22;20034;-81
2022/06/29 07:35:04;;;;;;;12.55;8.57;;;;;;;27.84;40.79;101414.69;6306750;22;20011;-79
2022/06/29 07:37:30;;;;;;;11.30;7.88;;;;;;;27.85;41.18;101417.16;6305780;22;20052;-77
2022/06/29 07:39:55;;;;;;;11.25;9.95;;;;;;;27.49;39.96;101321.78;6306138;22;20096;-79
2022/06/29 07:42:21;;;;;;;12.20;9.73;;;;;;;27.92;41.33;101396.75;6306319;22;20003;-79
2022/06/29 07:44:46;;;;;;;13.55;9.93;;;;;;;27.63;42.11;101336.78;6306114;22;19999;-80
2022/06/29 07:47:11;;;;;;;10.98;9.63;;;;;;;28.02;42.58;101409.66;6306349;22;20428;-77
2022/06/29 07:49:36;;;;;;;12.57;11.07;;;;;;;27.77;39.95;101403.22;6306058;22;20038;-78
2022/06/29 07:52:02;;;;;;;13.00;11.15;;;;;;;27.29;43.44;101376.53;6306239;22;20025;-78
2022/06/29 07:54:35;;;;;;;11.70;9.23;;;;;;;26.96;41.14;101365.66;6306491;22;20316;-80
2022/06/29 07:57:00;;;;;;;10.60;8.75;;;;;;;26.86;43.60;101392.47;6306025;22;20008;-76
2022/06/29 07:59:25;;;;;;;9.90;6.95;;;;;;;26.71;43.77;101389.88;6306282;22;20504;-80
2022/06/29 08:01:51;;;;;;;9.95;5.57;;;;;;;26.81;42.74;101385.09;6305933;22;20099;-78
2022/06/29 08:04:16;;;;;;;9.13;5.80;;;;;;;26.87;42.58;101384.34;6306568;22;20128;-79
2022/06/29 08:06:41;;;;;;;7.85;5.22;;;;;;;26.85;42.73;101390.84;6306151;22;20080;-81
2022/06/29 08:09:07;;;;;;;7.93;4.70;;;;;;;26.54;41.56;101391.94;6306290;22;20379;-79
2022/06/29 08:11:32;;;;;;;7.05;4.10;;;;;;;26.63;42.82;101362.69;6304920;22;20333;-80
2022/06/29 08:14:00;;;;;;;6.82;3.83;;;;;;;26.47;42.88;101342.56;6304768;22;20023;-81
2022/06/29 08:16:25;;;;;;;9.50;4.47;;;;;;;26.60;41.43;101382.44;6304799;22;20030;-81
2022/06/29 08:18:50;;;;;;;7.97;4.07;;;;;;;26.53;40.15;101376.22;6304749;22;20405;-80
2022/06/29 08:21:16;;;;;;;11.88;4.20;;;;;;;26.76;41.89;101368.13;6304434;22;20067;-82
2022/06/29 08:23:41;;;;;;;6.68;3.85;;;;;;;26.77;42.25;101385.66;6306266;22;20004;-81
2022/06/29 08:26:07;;;;;;;7.10;3.97;;;;;;;26.70;42.30;101367.03;6306260;22;20003;-82
2022/06/29 08:28:32;;;;;;;6.60;3.35;;;;;;;26.55;42.91;101348.56;6306354;22;20379;-83
2022/06/29 08:30:58;;;;;;;7.63;3.20;;;;;;;26.90;42.72;101382.31;6305880;22;20000;-82
2022/06/29 08:33:23;;;;;;;5.55;3.40;;;;;;;26.79;41.55;101381.81;6305935;22;20056;-85
2022/06/29 08:35:49;;;;;;;6.97;2.78;;;;;;;26.54;43.10;101346.09;6306500;22;20057;-82
2022/06/29 08:38:15;;;;;;;4.88;3.10;;;;;;;26.65;41.92;101366.00;6305135;22;19999;-83
2022/06/29 08:40:47;;;;;;;4.88;3.30;;;;;;;26.53;41.90;101381.53;6307110;22;20357;-81
2022/06/29 08:43:14;;;;;;;6.78;3.38;;;;;;;26.63;42.87;101374.09;6306152;22;20031;-80
2022/06/29 08:45:47;;;;;;;8.63;3.25;;;;;;;26.64;42.17;101365.13;6305864;22;20078;-82
2022/06/29 08:48:13;;;;;;;7.30;3.40;;;;;;;26.71;42.17;101371.31;6306022;22;20053;-82
2022/06/29 08:50:40;;;;;;;7.15;3.50;;;;;;;26.75;44.26;101382.38;6306377;22;20086;-83
2022/06/29 08:53:13;;;;;;;3.67;2.47;;;;;;;26.77;42.70;101375.06;6305831;22;20431;-82
2022/06/29 08:55:52;;;;;;;11.98;5.25;;;;;;;26.65;43.57;101366.00;6305966;22;20056;-89
2022/06/29 08:58:35;;;;;;;7.13;4.75;;;;;;;26.42;43.23;101343.13;6306393;22;20003;-81
2022/06/29 09:01:01;;;;;;;7.55;3.83;;;;;;;26.67;43.28;101367.44;6305887;22;20313;-81
2022/06/29 09:03:26;;;;;;;9.98;5.47;;;;;;;26.69;44.37;101368.06;6305714;22;20006;-82
2022/06/29 09:06:01;;;;;;;11.90;5.32;;;;;;;26.66;43.18;101335.84;6305949;22;19999;-82
2022/06/29 09:08:26;;;;;;;6.90;4.25;;;;;;;27.05;43.24;101369.84;6305543;22;20433;-79
2022/06/29 09:10:52;;;;;;;7.68;4.70;;;;;;;26.92;42.64;101349.28;6259392;22;1078205;-82
2022/06/29 09:13:21;;;;;;;9.07;4.28;;;;;;;27.15;43.29;101363.19;6308005;22;20026;-80
2022/06/29 09:15:55;;;;;;;8.90;4.22;;;;;;;27.17;42.33;101352.38;6307897;22;20009;-83
2022/06/29 09:18:31;;;;;;;7.70;4.35;;;;;;;27.28;43.49;101369.59;6307697;22;19999;-82
2022/06/29 09:21:04;;;;;;;6.97;3.60;;;;;;;27.53;43.92;101370.81;6308000;22;20007;-82
2022/06/29 09:23:31;;;;;;;8.63;4.60;;;;;;;27.77;39.12;101366.88;6307328;22;20060;-79
2022/06/29 09:25:57;;;;;;;7.57;3.95;;;;;;;27.88;40.93;101371.63;6307816;22;20317;-81
2022/06/29 09:28:25;;;;;;;7.15;3.63;;;;;;;27.94;38.65;101373.50;6308017;22;20011;-79
2022/06/29 09:30:55;;;;;;;6.88;4.15;;;;;;;28.09;39.37;101373.34;6307704;22;20014;-78
2022/06/29 09:33:31;;;;;;;5.85;3.13;;;;;;;28.12;39.43;101377.41;6307562;22;20003;-82
2022/06/29 09:36:10;;;;;;;4.97;2.97;;;;;;;28.01;41.22;101371.66;6307035;22;20005;-82
2022/06/29 09:38:37;;;;;;;7.10;3.25;;;;;;;27.62;41.66;101343.06;6279739;22;20052;-82
2022/06/29 09:41:14;;;;;;;7.28;2.88;;;;;;;27.65;42.19;101371.91;6307414;22;20011;-82
2022/06/29 09:43:40;;;;;;;6.47;3.08;;;;;;;27.57;41.86;101377.34;6306716;22;20078;-82
2022/06/29 09:46:08;;;;;;;4.63;2.60;;;;;;;27.43;41.62;101336.66;6279752;22;20038;-82
2022/06/29 09:48:35;;;;;;;5.32;2.13;;;;;;;27.71;43.15;101365.00;6307439;22;19999;-83
2022/06/29 09:51:30;;;;;;;5.18;2.08;;;;;;;27.87;40.04;101364.66;6307804;22;20090;-84
2022/06/29 09:53:49;;;;;;;3.63;1.90;;;;;;;27.55;38.96;101367.94;6306664;22;20011;-85
2022/06/29 09:56:18;;;;;;;6.07;1.85;;;;;;;27.22;39.47;101370.34;6307787;22;20034;-85
2022/06/29 09:58:48;;;;;;;4.65;2.08;;;;;;;26.97;40.20;101338.13;6307166;22;20037;-84
2022/06/29 10:04:01;;;;;;;4.07;2.05;;;;;;;27.12;40.44;101345.00;6307571;22;20034;-85
2022/06/29 10:06:27;;;;;;;7.18;2.17;;;;;;;27.18;42.56;101358.50;6307191;22;20447;-83
2022/06/29 10:08:53;;;;;;;4.25;1.70;;;;;;;27.15;41.45;101357.06;6279479;22;20007;-84
2022/06/29 10:14:43;;;;;;;4.57;1.90;;;;;;;27.20;41.19;101354.66;6307394;22;20080;-85
2022/06/29 10:17:27;;;;;;;4.20;1.65;;;;;;;27.23;39.26;101358.72;6307411;22;20030;-84
2022/06/29 10:20:09;;;;;;;4.20;1.85;;;;;;;27.19;38.50;101354.84;6307907;22;20082;-85
2022/06/29 10:22:35;;;;;;;3.15;1.52;;;;;;;27.08;37.50;101332.34;6307844;22;20038;-84
2022/06/29 10:25:05;;;;;;;4.82;1.40;;;;;;;27.05;36.67;101327.44;6307823;22;20010;-78
2022/06/29 10:27:31;;;;;;;3.50;1.45;;;;;;;27.30;38.23;101346.34;6307120;22;19999;-84
2022/06/29 10:30:22;;;;;;;1.83;1.60;;;;;;;27.35;37.84;101344.78;6307364;22;20007;-76
2022/06/29 10:32:47;;;;;;;;;;;;;;;27.40;39.61;101346.81;6307953;22;20030;-78
2022/06/29 10:35:13;;;;;;;3.67;1.63;;;;;;;27.30;38.74;101325.13;6306851;22;20316;-77
2022/06/29 10:37:53;;;;;;;3.50;1.98;;;;;;;27.46;37.68;101345.25;6279465;22;20019;-79
2022/06/29 10:40:24;;;;;;;4.05;1.80;;;;;;;27.41;38.51;101333.34;6306507;22;20011;-78
2022/06/29 10:43:09;;;;;;;7.63;1.90;;;;;;;27.49;36.60;101329.75;6279193;22;20091;-78
2022/06/29 10:45:44;;;;;;;3.55;1.70;;;;;;;27.40;35.94;101325.59;6306472;22;19999;-80
2022/06/29 10:48:12;;;;;;;6.90;2.05;;;;;;;27.56;36.50;101332.44;6307284;22;20068;-82
2022/06/29 10:50:39;;;;;;;4.70;1.90;;;;;;;27.65;36.01;101325.97;6306899;22;20433;-85
2022/06/29 10:53:10;;;;;;;5.32;2.05;;;;;;;27.74;37.07;101322.16;6306140;22;20083;-78
2022/06/29 10:55:39;;;;;;;;;;;;;;;28.01;36.80;101317.75;6308131;22;20055;-79
2022/06/29 10:58:05;;;;;;;4.82;2.03;;;;;;;28.08;37.44;101302.66;6307028;22;19910;-81
2022/06/29 11:00:41;;;;;;;5.03;1.90;;;;;;;28.07;37.49;101279.78;6306293;22;20337;-82
2022/06/29 11:03:17;;;;;;;5.35;1.88;;;;;;;28.18;34.47;101303.09;6306366;22;20027;-78
2022/06/29 11:14:02;;;;;;;4.57;1.60;;;;;;;28.03;36.04;101302.47;6307024;22;20099;-81
2022/06/29 11:16:30;;;;;;;4.85;2.22;;;;;;;27.91;34.66;101302.19;6307089;22;20006;-81
2022/06/29 11:18:56;;;;;;;4.43;1.52;;;;;;;27.85;35.77;101310.16;6307128;22;20010;-83
2022/06/29 11:21:22;;;;;;;5.43;2.13;;;;;;;27.87;35.43;101302.81;6306904;22;20378;-81
2022/06/29 11:23:55;;;;;;;4.75;2.40;;;;;;;27.87;38.29;101310.75;6307118;22;20003;-80
2022/06/29 11:26:24;;;;;;;4.88;2.17;;;;;;;27.89;35.66;101312.19;6306728;22;19999;-85
2022/06/29 11:28:50;;;;;;;4.78;2.50;;;;;;;27.88;35.43;101312.41;6307124;22;20025;-90
2022/06/29 11:31:17;;;;;;;4.53;2.10;;;;;;;27.92;34.64;101308.31;6307420;22;20070;-88
2022/06/29 11:33:46;;;;;;;5.28;1.85;;;;;;;28.01;35.65;101296.50;6307009;22;20003;-79
2022/06/29 11:36:23;;;;;;;4.75;2.00;;;;;;;28.28;35.16;101295.59;6306499;22;20056;-81
2022/06/29 11:38:51;;;;;;;6.82;2.45;;;;;;;28.66;35.70;101294.19;6306694;22;20003;-78
2022/06/29 11:41:23;;;;;;;4.63;2.33;;;;;;;28.64;36.35;101267.00;6306879;22;20003;-81